Time;durP1;ratioP1;P1;durP2;ratioP2;P2;SDS_P1;SDS_P2;PMS_P1;PMS_P2;Temp;Humidity;BMP_temperature;BMP_pressure;BME280_temperature;BME280_humidity;BME280_pressure;Samples;Min_cycle;Max_cycle;Signal;HPM_P1;HPM_P2
2021/12/31 00:00:57;;;;;;;23.63;3.73;;;11.20;99.90;;;;;;5026276;28;20087;-84
2021/12/31 00:03:23;;;;;;;18.57;4.27;;;11.20;99.90;;;;;;5029851;28;20032;-85
2021/12/31 00:05:49;;;;;;;25.10;3.90;;;11.20;99.90;;;;;;5052084;28;20043;-84
2021/12/31 00:08:15;;;;;;;22.13;3.50;;;11.20;99.90;;;;;;5018858;28;20071;-84
2021/12/31 00:10:40;;;;;;;16.80;3.10;;;11.30;99.90;;;;;;5038464;28;20489;-84
2021/12/31 00:13:06;;;;;;;22.53;3.90;;;11.30;99.90;;;;;;5049185;28;20084;-85
2021/12/31 00:15:32;;;;;;;22.50;4.57;;;11.30;99.90;;;;;;5029926;28;20032;-85
2021/12/31 00:17:58;;;;;;;23.00;4.10;;;11.30;99.90;;;;;;5031044;28;20185;-85
2021/12/31 00:20:25;;;;;;;20.87;3.90;;;11.30;99.90;;;;;;5033763;28;20047;-85
2021/12/31 00:23:06;;;;;;;18.30;2.97;;;11.30;99.90;;;;;;5029757;28;20036;-84
2021/12/31 00:25:34;;;;;;;23.93;4.73;;;11.30;99.90;;;;;;5042280;28;20310;-85
2021/12/31 00:28:00;;;;;;;24.37;4.03;;;11.30;99.90;;;;;;5048132;28;20307;-84
2021/12/31 00:30:27;;;;;;;20.73;3.23;;;11.30;99.90;;;;;;5031686;28;20295;-84
2021/12/31 00:32:53;;;;;;;22.00;3.97;;;11.20;99.90;;;;;;5053207;28;20032;-85
2021/12/31 00:35:19;;;;;;;24.27;4.13;;;11.30;99.90;;;;;;5044107;28;20283;-85
2021/12/31 00:37:45;;;;;;;29.30;4.90;;;11.30;99.90;;;;;;5036428;28;20105;-85
2021/12/31 00:40:13;;;;;;;20.30;3.57;;;11.20;99.90;;;;;;5042974;28;20275;-84
2021/12/31 00:42:39;;;;;;;21.53;4.40;;;11.30;99.90;;;;;;5050121;28;20040;-84
2021/12/31 00:45:07;;;;;;;23.27;3.63;;;11.30;99.90;;;;;;5053056;28;20298;-84
2021/12/31 00:47:33;;;;;;;25.83;3.57;;;11.30;99.90;;;;;;5062860;28;20325;-84
2021/12/31 00:49:59;;;;;;;21.83;4.20;;;11.30;99.90;;;;;;5045125;28;20300;-84
2021/12/31 00:52:25;;;;;;;18.90;3.57;;;11.30;99.90;;;;;;5040054;28;20037;-84
2021/12/31 00:54:50;;;;;;;20.03;3.50;;;11.30;99.90;;;;;;5020573;28;20044;-84
2021/12/31 00:57:16;;;;;;;16.63;3.73;;;11.30;99.90;;;;;;5034680;28;20044;-85
2021/12/31 00:59:42;;;;;;;21.70;4.13;;;11.30;99.90;;;;;;5038720;28;20120;-84
2021/12/31 01:02:11;;;;;;;21.50;3.80;;;11.30;99.90;;;;;;5045925;28;20053;-85
2021/12/31 01:04:37;;;;;;;20.27;3.90;;;11.20;99.90;;;;;;5051313;28;20119;-85
2021/12/31 01:07:03;;;;;;;26.07;4.53;;;11.20;99.90;;;;;;5033047;28;20874;-85
2021/12/31 01:09:30;;;;;;;19.87;3.97;;;11.20;99.90;;;;;;5030338;28;20382;-85
2021/12/31 01:11:56;;;;;;;20.67;3.57;;;11.20;99.90;;;;;;5047684;28;20349;-85
2021/12/31 01:16:57;;;;;;;23.60;3.77;;;11.20;99.90;;;;;;5051185;28;20774;-85
2021/12/31 01:21:54;;;;;;;21.17;3.73;;;11.30;99.90;;;;;;5069717;28;20287;-85
2021/12/31 01:24:23;;;;;;;26.03;4.47;;;11.30;99.90;;;;;;5031238;28;20291;-85
2021/12/31 01:26:49;;;;;;;22.97;4.13;;;11.30;99.90;;;;;;5032709;28;20291;-84
2021/12/31 01:29:14;;;;;;;20.47;4.07;;;11.20;99.90;;;;;;5028102;28;20322;-84
2021/12/31 01:31:40;;;;;;;22.47;4.30;;;11.20;99.90;;;;;;5008044;28;20033;-85
2021/12/31 01:34:06;;;;;;;18.27;3.70;;;11.20;99.90;;;;;;5049767;28;20043;-84
2021/12/31 01:36:32;;;;;;;23.57;4.37;;;11.20;99.90;;;;;;5015179;28;20507;-84
2021/12/31 01:38:58;;;;;;;17.53;3.30;;;11.30;99.90;;;;;;5017672;28;20293;-85
2021/12/31 01:41:24;;;;;;;20.17;3.67;;;11.30;99.90;;;;;;5044264;28;20294;-85
2021/12/31 01:43:51;;;;;;;17.90;3.03;;;11.30;99.90;;;;;;5041548;28;20056;-85
2021/12/31 01:46:17;;;;;;;17.50;3.97;;;11.30;99.90;;;;;;5032748;28;20488;-85
2021/12/31 01:51:24;;;;;;;24.23;3.70;;;11.30;99.90;;;;;;5038837;28;20048;-85
2021/12/31 01:53:50;;;;;;;20.33;3.80;;;11.30;99.90;;;;;;5045993;28;20344;-85
2021/12/31 01:56:17;;;;;;;17.10;3.30;;;11.30;99.90;;;;;;5028193;28;20302;-85
2021/12/31 01:58:43;;;;;;;14.87;3.47;;;11.30;99.90;;;;;;5039937;28;20037;-85
2021/12/31 02:01:10;;;;;;;14.40;2.90;;;11.30;99.90;;;;;;5045788;28;20790;-85
2021/12/31 02:03:37;;;;;;;15.90;3.20;;;11.30;99.90;;;;;;5035988;28;20040;-85
2021/12/31 02:06:04;;;;;;;15.97;3.13;;;11.30;99.90;;;;;;5050794;28;20294;-85
2021/12/31 02:08:31;;;;;;;22.93;4.10;;;11.30;99.90;;;;;;5050732;28;20307;-85
2021/12/31 02:10:57;;;;;;;16.20;3.40;;;11.30;99.90;;;;;;5042105;28;20310;-85
2021/12/31 02:13:24;;;;;;;18.63;2.80;;;11.40;99.90;;;;;;5050491;28;20289;-85
2021/12/31 02:15:51;;;;;;;16.60;3.50;;;11.40;99.90;;;;;;5042789;28;20293;-85
2021/12/31 02:18:17;;;;;;;22.33;3.70;;;11.40;99.90;;;;;;5061280;28;20291;-85
2021/12/31 02:20:48;;;;;;;22.03;3.63;;;11.40;99.90;;;;;;5047280;28;20289;-85
2021/12/31 02:23:24;;;;;;;13.70;2.97;;;11.40;99.90;;;;;;5044765;28;20343;-85
2021/12/31 02:25:50;;;;;;;16.37;3.23;;;11.40;99.90;;;;;;5029477;28;20381;-85
2021/12/31 02:28:18;;;;;;;11.93;2.60;;;11.50;99.90;;;;;;5035060;28;20806;-85
2021/12/31 02:30:44;;;;;;;13.10;3.40;;;11.40;99.90;;;;;;5034989;28;20299;-85
2021/12/31 02:33:10;;;;;;;13.50;3.57;;;11.50;99.90;;;;;;5035510;28;20370;-85
2021/12/31 02:35:37;;;;;;;16.60;3.50;;;11.50;99.90;;;;;;5051181;28;20433;-85
2021/12/31 02:38:04;;;;;;;15.07;3.17;;;11.50;99.90;;;;;;5051867;28;20378;-85
2021/12/31 02:40:31;;;;;;;16.17;3.27;;;11.60;99.90;;;;;;5049075;28;20286;-85
2021/12/31 02:42:57;;;;;;;13.43;2.87;;;11.60;99.90;;;;;;5027911;28;20779;-85
2021/12/31 02:45:30;;;;;;;15.97;3.50;;;11.60;99.90;;;;;;5066974;28;20297;-85
2021/12/31 02:47:57;;;;;;;13.70;3.20;;;11.60;99.90;;;;;;5033249;28;20295;-84
2021/12/31 02:50:33;;;;;;;15.37;3.13;;;11.60;99.90;;;;;;5051997;28;20305;-85
2021/12/31 02:53:13;;;;;;;19.20;3.47;;;11.60;99.90;;;;;;5036828;28;20283;-85
2021/12/31 02:55:41;;;;;;;15.67;3.47;;;11.60;99.90;;;;;;5038259;28;20378;-85
2021/12/31 02:58:07;;;;;;;17.37;3.57;;;11.50;99.90;;;;;;5024513;28;20287;-84
2021/12/31 03:00:34;;;;;;;16.07;3.80;;;11.50;99.90;;;;;;5034799;28;20364;-85
2021/12/31 03:03:01;;;;;;;15.80;3.50;;;11.50;99.90;;;;;;5036829;28;20716;-85
2021/12/31 03:05:29;;;;;;;15.33;3.47;;;11.50;99.90;;;;;;5029768;28;20295;-85
2021/12/31 03:07:57;;;;;;;14.40;3.60;;;11.50;99.90;;;;;;5048131;28;20309;-85
2021/12/31 03:10:26;;;;;;;18.50;3.73;;;11.50;99.90;;;;;;5056479;28;20290;-85
2021/12/31 03:12:52;;;;;;;13.27;3.00;;;11.50;99.90;;;;;;5046680;28;20286;-84
2021/12/31 03:15:19;;;;;;;15.73;3.17;;;11.50;99.90;;;;;;5025916;28;20309;-85
2021/12/31 03:17:45;;;;;;;18.73;3.40;;;11.50;99.90;;;;;;5039603;28;20317;-85
2021/12/31 03:20:25;;;;;;;20.03;4.10;;;11.50;99.90;;;;;;5049839;28;20795;-85
2021/12/31 03:22:51;;;;;;;18.30;3.30;;;11.60;99.90;;;;;;5052678;28;20295;-85
2021/12/31 03:25:16;;;;;;;15.33;3.00;;;11.60;99.90;;;;;;5024239;28;20294;-84
2021/12/31 03:27:42;;;;;;;15.27;2.90;;;11.60;99.90;;;;;;5030922;28;20086;-85
2021/12/31 03:30:10;;;;;;;19.07;3.23;;;11.60;99.90;;;;;;5022285;28;20809;-85
2021/12/31 03:32:37;;;;;;;13.80;3.33;;;11.70;99.90;;;;;;5045570;28;20051;-85
2021/12/31 03:35:03;;;;;;;15.67;3.10;;;11.70;99.90;;;;;;5049182;28;20283;-85
2021/12/31 03:37:28;;;;;;;16.23;3.23;;;11.70;99.90;;;;;;5031945;28;20646;-85
2021/12/31 03:39:54;;;;;;;14.33;2.87;;;11.80;99.90;;;;;;5029853;28;20330;-85
2021/12/31 03:42:20;;;;;;;11.93;2.80;;;11.80;99.90;;;;;;5013836;28;20044;-86
2021/12/31 03:44:46;;;;;;;13.63;2.53;;;11.80;99.90;;;;;;5033168;28;20089;-86
2021/12/31 03:47:12;;;;;;;16.27;3.17;;;11.90;99.90;;;;;;5035789;28;20037;-85
2021/12/31 03:49:38;;;;;;;16.73;3.20;;;11.90;99.90;;;;;;5048999;28;20302;-85
2021/12/31 03:52:04;;;;;;;12.13;2.87;;;11.90;99.90;;;;;;5014630;28;20067;-84
2021/12/31 03:54:30;;;;;;;18.63;3.43;;;11.90;99.90;;;;;;5038644;28;20042;-85
2021/12/31 03:56:56;;;;;;;13.63;3.30;;;11.90;99.90;;;;;;5039001;28;20345;-85
2021/12/31 03:59:21;;;;;;;13.83;2.67;;;11.90;99.90;;;;;;5038160;28;20295;-85
2021/12/31 04:01:47;;;;;;;15.87;3.60;;;11.90;99.90;;;;;;5033224;28;20389;-85
2021/12/31 04:04:13;;;;;;;14.60;3.23;;;11.90;99.90;;;;;;5006227;28;20472;-85
2021/12/31 04:06:39;;;;;;;17.33;3.43;;;11.90;99.90;;;;;;5030274;28;20102;-84
2021/12/31 04:09:06;;;;;;;12.93;2.47;;;11.90;99.90;;;;;;5029672;28;20082;-84
2021/12/31 04:11:32;;;;;;;10.63;2.80;;;12.00;99.90;;;;;;5047830;28;20730;-85
2021/12/31 04:13:58;;;;;;;12.20;2.90;;;12.00;99.90;;;;;;5037184;28;20299;-85
2021/12/31 04:16:24;;;;;;;11.27;2.23;;;12.10;99.90;;;;;;5054281;28;20036;-85
2021/12/31 04:18:49;;;;;;;12.43;2.60;;;12.10;99.90;;;;;;5053810;28;20294;-86
2021/12/31 04:21:17;;;;;;;11.87;3.10;;;12.10;99.90;;;;;;5036326;28;20377;-86
2021/12/31 04:23:53;;;;;;;14.30;2.83;;;12.10;99.90;;;;;;5052030;28;20397;-85
2021/12/31 04:26:19;;;;;;;11.27;2.93;;;12.10;99.90;;;;;;5043132;28;20674;-85
2021/12/31 04:28:45;;;;;;;12.70;2.43;;;12.00;99.90;;;;;;5035883;28;20889;-85
2021/12/31 04:31:12;;;;;;;14.43;2.80;;;12.00;99.90;;;;;;5033411;28;20360;-85
2021/12/31 04:33:38;;;;;;;14.33;2.43;;;11.90;99.90;;;;;;5058957;28;20320;-86
2021/12/31 04:36:04;;;;;;;12.47;3.10;;;11.90;99.90;;;;;;5039942;28;20366;-86
2021/12/31 04:38:30;;;;;;;11.80;3.23;;;11.80;99.90;;;;;;5033165;28;20287;-85
2021/12/31 04:40:55;;;;;;;17.23;3.30;;;11.80;99.90;;;;;;5031904;28;20314;-85
2021/12/31 04:43:21;;;;;;;10.30;2.70;;;11.80;99.90;;;;;;5036298;28;20040;-86
2021/12/31 04:45:47;;;;;;;8.93;2.87;;;11.70;99.90;;;;;;5035574;28;20044;-85
2021/12/31 04:48:13;;;;;;;15.80;3.40;;;11.70;99.90;;;;;;5052709;28;20036;-85
2021/12/31 04:50:39;;;;;;;12.27;3.00;;;11.70;99.90;;;;;;5051655;28;20046;-86
2021/12/31 04:53:06;;;;;;;14.67;3.13;;;11.70;99.90;;;;;;5015236;28;20292;-86
2021/12/31 04:55:32;;;;;;;11.13;3.03;;;11.70;99.90;;;;;;5041130;28;20048;-86
2021/12/31 04:57:58;;;;;;;8.83;3.20;;;11.70;99.90;;;;;;5035893;28;20283;-86
2021/12/31 05:00:24;;;;;;;11.00;2.60;;;11.70;99.90;;;;;;5052715;28;20044;-85
2021/12/31 05:02:49;;;;;;;11.33;2.60;;;11.70;99.90;;;;;;5022180;28;20570;-86
2021/12/31 05:05:15;;;;;;;10.90;2.73;;;11.70;99.90;;;;;;5034009;28;20049;-86
2021/12/31 05:07:41;;;;;;;7.90;2.80;;;11.70;99.90;;;;;;5034494;28;20040;-86
2021/12/31 05:10:08;;;;;;;7.83;2.27;;;11.70;99.90;;;;;;5036836;28;20503;-86
2021/12/31 05:12:37;;;;;;;7.37;2.40;;;11.80;99.90;;;;;;5036023;28;20037;-86
2021/12/31 05:15:07;;;;;;;9.20;2.57;;;11.70;99.90;;;;;;5055793;28;20286;-86
2021/12/31 05:17:33;;;;;;;10.30;2.37;;;11.80;99.90;;;;;;5045936;28;20282;-86
2021/12/31 05:19:59;;;;;;;8.07;2.40;;;11.80;99.90;;;;;;5065646;28;20277;-86
2021/12/31 05:22:25;;;;;;;6.10;2.07;;;11.90;99.90;;;;;;5032567;28;20287;-86
2021/12/31 05:24:51;;;;;;;6.27;2.40;;;11.90;99.90;;;;;;5043259;28;20283;-86
2021/12/31 05:27:16;;;;;;;6.27;2.03;;;11.90;99.90;;;;;;5032659;28;20071;-85
2021/12/31 05:29:42;;;;;;;8.70;2.27;;;11.90;99.90;;;;;;5034257;28;20575;-84
2021/12/31 05:32:08;;;;;;;11.77;2.37;;;12.00;99.90;;;;;;5034787;28;20091;-86
2021/12/31 05:34:34;;;;;;;9.80;2.10;;;12.00;99.90;;;;;;5050885;28;20059;-86
2021/12/31 05:37:00;;;;;;;7.20;2.07;;;12.00;99.90;;;;;;5051630;28;20045;-86
2021/12/31 05:39:26;;;;;;;6.43;2.20;;;12.10;99.90;;;;;;5032721;28;20045;-86
2021/12/31 05:41:52;;;;;;;6.50;2.10;;;12.10;99.90;;;;;;5037887;28;20105;-86
2021/12/31 05:44:18;;;;;;;10.10;2.80;;;12.00;99.90;;;;;;5046297;28;20290;-86
2021/12/31 05:46:48;;;;;;;7.83;1.90;;;12.00;99.90;;;;;;5028701;28;20287;-85
2021/12/31 05:49:13;;;;;;;9.33;2.17;;;12.10;99.90;;;;;;5018802;28;20043;-86
2021/12/31 05:51:39;;;;;;;6.97;2.13;;;12.10;99.90;;;;;;5010352;28;20283;-85
2021/12/31 05:54:05;;;;;;;9.73;2.30;;;12.10;99.90;;;;;;5046688;28;20029;-86
2021/12/31 05:56:31;;;;;;;8.13;2.23;;;12.10;99.90;;;;;;5016108;28;20048;-86
2021/12/31 05:58:56;;;;;;;4.47;1.87;;;12.00;99.90;;;;;;5034178;28;20449;-85
2021/12/31 06:01:22;;;;;;;9.10;2.30;;;12.10;99.90;;;;;;5035147;28;20040;-86
2021/12/31 06:03:48;;;;;;;8.87;2.37;;;12.10;99.90;;;;;;5014558;28;20076;-85
2021/12/31 06:06:14;;;;;;;8.17;2.10;;;12.10;99.90;;;;;;5021182;28;20110;-86
2021/12/31 06:08:39;;;;;;;6.57;1.97;;;12.10;99.90;;;;;;5022529;28;20109;-85
2021/12/31 06:11:05;;;;;;;7.33;2.23;;;12.10;99.90;;;;;;5038852;28;20033;-85
2021/12/31 06:13:31;;;;;;;8.30;2.27;;;12.10;99.90;;;;;;5036606;28;20056;-86
2021/12/31 06:15:58;;;;;;;9.03;1.90;;;12.10;99.90;;;;;;5024580;28;20067;-86
2021/12/31 06:18:26;;;;;;;6.67;2.03;;;12.00;99.90;;;;;;5032842;28;20090;-85
2021/12/31 06:20:53;;;;;;;9.10;2.30;;;12.00;99.90;;;;;;5039821;28;20481;-86
2021/12/31 06:23:19;;;;;;;8.43;2.37;;;12.00;99.90;;;;;;5032341;28;20981;-86
2021/12/31 06:25:44;;;;;;;10.40;2.63;;;11.90;99.90;;;;;;5017417;28;20815;-86
2021/12/31 06:28:10;;;;;;;8.37;2.10;;;11.90;99.90;;;;;;5044697;28;20446;-86
2021/12/31 06:30:36;;;;;;;5.27;1.93;;;11.90;99.90;;;;;;5042081;28;20079;-85
2021/12/31 06:33:02;;;;;;;10.83;3.20;;;11.80;99.90;;;;;;5051006;28;20462;-86
2021/12/31 06:35:28;;;;;;;5.90;1.70;;;11.80;99.90;;;;;;5051030;28;20074;-86
2021/12/31 06:37:56;;;;;;;6.87;1.73;;;11.80;99.90;;;;;;5046847;28;20328;-86
2021/12/31 06:40:23;;;;;;;8.13;1.93;;;11.70;99.90;;;;;;5046705;28;20290;-86
2021/12/31 06:42:49;;;;;;;7.50;1.70;;;11.70;99.90;;;;;;5040643;28;20295;-85
2021/12/31 06:45:14;;;;;;;7.67;1.90;;;11.60;99.90;;;;;;5037480;28;20287;-86
2021/12/31 06:47:40;;;;;;;4.83;1.73;;;11.60;99.90;;;;;;5015557;28;20041;-86
2021/12/31 06:50:06;;;;;;;7.40;1.77;;;11.60;99.90;;;;;;5028778;28;20484;-86
2021/12/31 06:52:39;;;;;;;5.03;1.77;;;11.60;99.90;;;;;;5018040;28;20037;-86
2021/12/31 06:55:08;;;;;;;5.87;1.40;;;11.60;99.90;;;;;;5061626;28;20291;-86
2021/12/31 06:57:35;;;;;;;5.97;1.90;;;11.60;99.90;;;;;;5051660;28;20290;-86
2021/12/31 07:00:04;;;;;;;7.63;1.90;;;11.60;99.90;;;;;;5051440;28;20302;-86
2021/12/31 07:02:29;;;;;;;8.50;1.80;;;11.60;99.90;;;;;;5035556;28;21042;-86
2021/12/31 07:04:55;;;;;;;7.57;2.10;;;11.60;99.90;;;;;;5017676;28;20436;-86
2021/12/31 07:07:21;;;;;;;7.87;1.97;;;11.60;99.90;;;;;;5014972;28;20044;-86
2021/12/31 07:09:46;;;;;;;7.33;1.90;;;11.60;99.90;;;;;;5019744;28;20484;-86
2021/12/31 07:12:12;;;;;;;7.53;2.10;;;11.50;99.90;;;;;;5026491;28;20038;-86
2021/12/31 07:14:38;;;;;;;9.27;2.00;;;11.50;99.90;;;;;;5041057;28;20047;-86
2021/12/31 07:17:04;;;;;;;9.30;1.70;;;11.50;99.90;;;;;;5028511;28;20134;-86
2021/12/31 07:19:29;;;;;;;6.40;1.87;;;11.40;99.90;;;;;;5032977;28;20040;-86
2021/12/31 07:21:55;;;;;;;8.50;2.27;;;11.40;99.90;;;;;;5051542;28;20611;-86
2021/12/31 07:24:21;;;;;;;6.83;2.10;;;11.40;99.90;;;;;;5034325;28;20068;-86
2021/12/31 07:26:47;;;;;;;5.97;1.97;;;11.40;99.90;;;;;;5051398;28;20040;-86
2021/12/31 07:29:12;;;;;;;8.37;2.33;;;11.30;99.90;;;;;;5035392;28;20848;-85
2021/12/31 07:31:38;;;;;;;6.53;2.10;;;11.30;99.90;;;;;;5030833;28;20036;-86
2021/12/31 07:34:04;;;;;;;10.93;2.27;;;11.30;99.90;;;;;;5020718;28;20480;-86
2021/12/31 07:36:30;;;;;;;6.30;2.10;;;11.30;99.90;;;;;;5034793;28;20036;-86
2021/12/31 07:39:01;;;;;;;5.17;2.00;;;11.30;99.90;;;;;;5034123;28;20051;-86
2021/12/31 07:41:27;;;;;;;6.57;1.90;;;11.30;99.90;;;;;;5018776;28;20047;-86
2021/12/31 07:43:53;;;;;;;5.10;1.97;;;11.30;99.90;;;;;;5028519;28;20850;-86
2021/12/31 07:46:18;;;;;;;7.93;1.90;;;11.30;99.90;;;;;;5032657;28;20286;-86
2021/12/31 07:48:44;;;;;;;9.73;2.03;;;11.30;99.90;;;;;;5020738;28;20052;-86
2021/12/31 07:51:10;;;;;;;7.33;2.03;;;11.30;99.90;;;;;;5028776;28;20120;-86
2021/12/31 07:53:36;;;;;;;6.93;2.63;;;11.30;99.90;;;;;;5034417;28;20082;-86
2021/12/31 07:56:02;;;;;;;8.07;2.20;;;11.20;99.90;;;;;;5035666;28;20037;-86
2021/12/31 07:58:28;;;;;;;9.80;2.33;;;11.30;99.90;;;;;;5046750;28;20682;-86
2021/12/31 08:00:54;;;;;;;6.90;2.07;;;11.30;99.90;;;;;;5060856;28;20308;-85
2021/12/31 08:03:19;;;;;;;8.93;2.23;;;11.40;99.90;;;;;;5042149;28;20041;-86
2021/12/31 08:05:45;;;;;;;7.20;2.20;;;11.40;99.90;;;;;;5032478;28;20763;-86
2021/12/31 08:08:11;;;;;;;8.67;2.00;;;11.50;99.90;;;;;;5042923;28;20041;-85
2021/12/31 08:10:38;;;;;;;6.83;2.20;;;11.50;99.90;;;;;;5029345;28;20479;-85
2021/12/31 08:13:04;;;;;;;6.23;2.53;;;11.60;99.90;;;;;;5034854;28;20047;-85
2021/12/31 08:15:30;;;;;;;6.23;2.17;;;11.60;99.90;;;;;;5053291;28;20377;-86
2021/12/31 08:17:56;;;;;;;9.10;2.30;;;11.60;99.90;;;;;;5021869;28;20282;-86
2021/12/31 08:20:23;;;;;;;7.43;2.50;;;11.70;99.90;;;;;;5045370;28;20294;-86
2021/12/31 08:22:50;;;;;;;8.50;2.17;;;11.70;99.90;;;;;;5051454;28;20097;-86
2021/12/31 08:25:16;;;;;;;6.63;2.27;;;11.70;99.90;;;;;;5062078;28;20348;-85
2021/12/31 08:27:42;;;;;;;6.93;2.33;;;11.70;99.90;;;;;;5040699;28;20328;-86
2021/12/31 08:30:08;;;;;;;6.10;2.17;;;11.70;99.90;;;;;;5049473;28;20326;-85
2021/12/31 08:32:35;;;;;;;10.27;2.67;;;11.70;99.90;;;;;;5027290;28;20291;-85
2021/12/31 08:35:01;;;;;;;5.17;2.07;;;11.70;99.90;;;;;;5029112;28;20663;-85
2021/12/31 08:37:27;;;;;;;8.57;2.10;;;11.70;99.90;;;;;;5033892;28;20321;-87
2021/12/31 08:39:53;;;;;;;7.73;2.67;;;11.70;99.90;;;;;;5045380;28;20067;-85
2021/12/31 08:42:19;;;;;;;7.93;2.37;;;11.60;99.90;;;;;;5032513;28;20051;-86
2021/12/31 08:44:44;;;;;;;4.97;2.40;;;11.60;99.90;;;;;;5054920;28;20131;-86
2021/12/31 08:47:10;;;;;;;10.93;2.43;;;11.60;99.90;;;;;;5021196;28;20090;-86
2021/12/31 08:49:36;;;;;;;6.17;2.20;;;11.60;99.90;;;;;;5018190;28;20044;-85
2021/12/31 08:52:02;;;;;;;5.53;2.23;;;11.60;99.90;;;;;;5052694;28;20024;-85
2021/12/31 08:54:29;;;;;;;10.43;2.63;;;11.60;99.90;;;;;;5031441;28;20370;-84
2021/12/31 08:56:55;;;;;;;7.67;2.43;;;11.60;99.90;;;;;;5043065;28;20279;-86
2021/12/31 08:59:21;;;;;;;9.43;2.63;;;11.60;99.90;;;;;;5044679;28;21033;-85
2021/12/31 09:01:47;;;;;;;5.40;2.20;;;11.60;99.90;;;;;;5050279;28;20286;-85
2021/12/31 09:04:13;;;;;;;6.70;2.63;;;11.60;99.90;;;;;;5016499;28;20279;-84
2021/12/31 09:06:38;;;;;;;8.87;2.43;;;11.60;99.90;;;;;;5049543;28;20052;-85
2021/12/31 09:09:05;;;;;;;10.33;2.57;;;11.60;99.90;;;;;;5031503;28;20037;-85
2021/12/31 09:11:31;;;;;;;8.67;2.43;;;11.60;99.90;;;;;;5049401;28;20092;-85
2021/12/31 09:13:58;;;;;;;10.70;2.73;;;11.60;99.90;;;;;;5064848;28;20362;-84
2021/12/31 09:16:24;;;;;;;10.00;2.10;;;11.60;99.90;;;;;;5032532;28;20052;-84
2021/12/31 09:18:50;;;;;;;11.40;2.00;;;11.60;99.90;;;;;;5027582;28;20299;-85
2021/12/31 09:21:17;;;;;;;10.83;3.10;;;11.60;99.90;;;;;;5032398;28;20369;-84
2021/12/31 09:23:45;;;;;;;6.83;2.33;;;11.60;99.90;;;;;;5014477;28;20044;-84
2021/12/31 09:26:11;;;;;;;8.30;2.30;;;11.50;99.90;;;;;;5048740;28;20365;-85
2021/12/31 09:28:36;;;;;;;7.63;2.43;;;11.50;99.90;;;;;;5044546;28;20951;-84
2021/12/31 09:31:05;;;;;;;8.00;2.47;;;11.50;99.90;;;;;;5031072;28;20303;-85
2021/12/31 09:33:31;;;;;;;10.80;2.70;;;11.50;99.90;;;;;;5030317;28;20036;-86
2021/12/31 09:35:57;;;;;;;9.10;2.60;;;11.40;99.90;;;;;;5047373;28;20638;-86
2021/12/31 09:38:22;;;;;;;11.50;2.77;;;11.40;99.90;;;;;;5028323;28;20044;-86
2021/12/31 09:40:49;;;;;;;12.03;3.00;;;11.40;99.90;;;;;;5030207;28;20048;-85
2021/12/31 09:43:14;;;;;;;16.37;3.03;;;11.30;99.90;;;;;;5048536;28;20048;-85
2021/12/31 09:45:42;;;;;;;11.03;3.53;;;11.30;99.90;;;;;;5011343;28;20294;-85
2021/12/31 09:48:13;;;;;;;10.50;2.60;;;11.30;99.90;;;;;;5027561;28;20060;-85
2021/12/31 09:50:41;;;;;;;7.73;2.80;;;11.30;99.90;;;;;;5045891;28;20734;-84
2021/12/31 09:53:08;;;;;;;7.70;2.90;;;11.20;99.90;;;;;;5041757;28;20290;-85
2021/12/31 09:55:36;;;;;;;9.70;2.80;;;11.20;99.90;;;;;;5034925;28;20290;-85
2021/12/31 09:58:02;;;;;;;9.60;3.00;;;11.20;99.90;;;;;;5042920;28;20359;-85
2021/12/31 10:00:28;;;;;;;11.73;3.00;;;11.20;99.90;;;;;;5043560;28;20385;-85
2021/12/31 10:03:14;;;;;;;11.10;2.90;;;11.10;99.90;;;;;;5038153;28;20098;-85
2021/12/31 10:05:43;;;;;;;;;;;11.10;99.90;;;;;;5057149;28;20287;-84
2021/12/31 10:08:14;;;;;;;9.70;3.20;;;11.10;99.90;;;;;;5046842;28;19945;-84
2021/12/31 10:10:40;;;;;;;11.13;3.43;;;11.10;99.90;;;;;;5036319;28;20291;-84
2021/12/31 10:13:07;;;;;;;7.87;2.70;;;11.10;99.90;;;;;;5021253;28;20638;-85
2021/12/31 10:15:39;;;;;;;10.17;2.80;;;11.10;99.90;;;;;;5045948;28;20139;-84
2021/12/31 10:18:12;;;;;;;12.93;3.50;;;11.10;99.90;;;;;;5041749;28;20294;-83
2021/12/31 10:20:51;;;;;;;10.87;3.20;;;11.10;99.90;;;;;;5052421;28;20778;-84
2021/12/31 10:23:19;;;;;;;10.43;3.17;;;11.10;99.90;;;;;;5020822;28;20275;-83
2021/12/31 10:25:45;;;;;;;9.20;3.20;;;11.10;99.90;;;;;;5046680;28;20334;-83
2021/12/31 10:28:14;;;;;;;9.40;3.10;;;11.10;99.90;;;;;;5048826;28;20667;-84
2021/12/31 10:30:40;;;;;;;10.50;3.10;;;11.10;99.90;;;;;;5064680;28;20325;-83
2021/12/31 10:33:07;;;;;;;8.93;2.80;;;11.10;99.90;;;;;;5066877;28;20298;-84
2021/12/31 10:35:40;;;;;;;12.53;3.87;;;11.10;99.90;;;;;;5025882;28;20283;-84
2021/12/31 10:38:06;;;;;;;9.77;3.80;;;11.10;99.90;;;;;;5047627;28;20299;-83
2021/12/31 10:40:43;;;;;;;14.07;3.57;;;11.20;99.90;;;;;;5028798;28;20418;-83
2021/12/31 10:43:21;;;;;;;15.47;3.83;;;11.20;99.90;;;;;;5044335;28;20299;-84
2021/12/31 10:46:09;;;;;;;13.37;3.10;;;11.20;99.90;;;;;;5043900;28;20318;-83
2021/12/31 10:48:38;;;;;;;7.50;3.17;;;11.20;99.90;;;;;;5040838;28;20790;-83
2021/12/31 10:51:04;;;;;;;12.50;3.97;;;11.20;99.90;;;;;;5049605;28;20837;-82
2021/12/31 10:53:33;;;;;;;10.67;3.87;;;11.10;99.90;;;;;;5020287;28;20295;-83
2021/12/31 10:56:08;;;;;;;9.43;3.57;;;11.10;99.90;;;;;;5033236;28;20033;-83
2021/12/31 10:58:39;;;;;;;8.38;3.17;;;11.10;99.90;;;;;;5050684;28;20318;-83
2021/12/31 11:01:12;;;;;;;11.07;3.87;;;11.10;99.90;;;;;;5048935;28;20269;-82
2021/12/31 11:03:39;;;;;;;10.70;3.40;;;11.10;99.90;;;;;;5065652;28;20317;-82
2021/12/31 11:06:07;;;;;;;14.77;4.83;;;11.10;99.90;;;;;;5050297;28;20305;-82
2021/12/31 11:08:34;;;;;;;14.63;4.33;;;11.00;99.90;;;;;;5022332;28;20394;-83
2021/12/31 11:11:02;;;;;;;14.63;4.20;;;11.00;99.90;;;;;;5031552;28;20299;-82
2021/12/31 11:13:30;;;;;;;14.13;4.10;;;11.00;99.90;;;;;;5036698;28;20285;-81
2021/12/31 11:15:57;;;;;;;11.87;3.97;;;11.00;99.90;;;;;;5015009;28;20297;-82
2021/12/31 11:18:24;;;;;;;17.20;4.83;;;11.00;99.90;;;;;;5028214;28;20703;-81
2021/12/31 11:21:09;;;;;;;16.47;3.73;;;10.90;99.90;;;;;;5050678;28;20694;-82
2021/12/31 11:23:36;;;;;;;14.48;4.40;;;10.90;99.90;;;;;;5050439;28;20275;-81
2021/12/31 11:26:13;;;;;;;14.83;4.20;;;10.80;99.90;;;;;;5027946;28;20051;-81
2021/12/31 11:28:44;;;;;;;15.57;4.80;;;10.80;99.90;;;;;;5068055;28;20813;-80
2021/12/31 11:31:22;;;;;;;15.57;5.10;;;10.70;99.90;;;;;;5070880;28;20310;-80
2021/12/31 11:34:00;;;;;;;16.30;5.60;;;10.70;99.90;;;;;;5038801;28;20306;-80
2021/12/31 11:36:42;;;;;;;21.17;5.83;;;10.60;99.90;;;;;;5076642;28;20293;-80
2021/12/31 11:39:25;;;;;;;13.60;4.37;;;10.60;99.90;;;;;;5050615;28;20848;-79
2021/12/31 11:41:52;;;;;;;17.55;5.15;;;10.60;99.90;;;;;;5050748;28;20389;-80
2021/12/31 11:44:19;;;;;;;16.50;5.27;;;10.50;99.90;;;;;;5049337;28;20051;-79
2021/12/31 11:46:45;;;;;;;20.08;5.30;;;10.50;99.90;;;;;;5038581;28;20678;-79
2021/12/31 11:49:25;;;;;;;17.25;4.75;;;10.50;99.90;;;;;;5054645;28;20047;-80
2021/12/31 11:52:00;;;;;;;14.98;4.93;;;10.50;99.90;;;;;;5053330;28;20032;-80
2021/12/31 11:54:27;;;;;;;;;;;10.50;99.90;;;;;;5055447;28;20083;-79
2021/12/31 11:56:55;;;;;;;14.20;4.95;;;10.50;99.90;;;;;;5072334;28;19916;-79
2021/12/31 11:59:20;;;;;;;14.52;5.15;;;10.50;99.90;;;;;;5057816;28;20032;-79
2021/12/31 12:02:04;;;;;;;16.53;4.67;;;10.60;99.90;;;;;;5068540;28;20082;-80
2021/12/31 12:04:37;;;;;;;14.73;4.55;;;10.60;99.90;;;;;;5053482;28;20374;-80
2021/12/31 12:07:09;;;;;;;11.98;4.68;;;10.60;99.90;;;;;;5043449;28;20040;-82
2021/12/31 12:09:41;;;;;;;11.27;4.70;;;10.60;99.90;;;;;;5051998;28;20037;-79
2021/12/31 12:12:10;;;;;;;13.80;4.67;;;10.70;99.90;;;;;;5050422;28;20291;-81
2021/12/31 12:14:41;;;;;;;20.13;5.70;;;10.70;99.90;;;;;;5035418;28;20289;-82
2021/12/31 12:17:13;;;;;;;15.83;4.67;;;10.70;99.90;;;;;;5057268;28;20052;-82
2021/12/31 12:19:50;;;;;;;17.45;4.90;;;10.70;99.90;;;;;;5057739;28;20287;-82
2021/12/31 12:22:37;;;;;;;11.90;4.53;;;10.70;99.90;;;;;;5044314;28;20946;-81
2021/12/31 12:25:15;;;;;;;17.25;5.13;;;10.60;99.90;;;;;;5041722;28;20040;-82
2021/12/31 12:27:41;;;;;;;14.87;5.50;;;10.60;99.90;;;;;;5039404;28;20037;-82
2021/12/31 12:30:12;;;;;;;14.80;5.88;;;10.60;99.90;;;;;;5055024;28;20316;-83
2021/12/31 12:33:24;;;;;;;16.00;4.75;;;10.60;99.90;;;;;;5056981;28;20036;-82
2021/12/31 12:35:28;;;;;;;15.25;4.80;;;10.50;99.90;;;;;;5082335;28;20043;-83
2021/12/31 12:38:11;;;;;;;18.50;5.60;;;10.50;99.90;;;;;;5042523;28;20033;-81
2021/12/31 12:40:49;;;;;;;15.23;4.82;;;10.50;99.90;;;;;;5053429;28;20085;-82
2021/12/31 12:43:18;;;;;;;14.80;4.95;;;10.50;99.90;;;;;;5072852;28;20048;-82
2021/12/31 12:45:50;;;;;;;12.52;4.80;;;10.50;99.90;;;;;;5053207;28;20036;-82
2021/12/31 12:48:17;;;;;;;13.30;5.00;;;10.50;99.90;;;;;;5079841;28;20048;-83
2021/12/31 12:50:48;;;;;;;19.88;5.68;;;10.50;99.90;;;;;;5060136;28;20025;-81